PWSweather.com
Personal Weather Stations
Station Observations
SANDHURSTWX
SandhurstGB

SandhurstGB

Lat: 51.3522, Lon: -0.7739

Elevation: 272.3

Station Type: Davis VP2

www.sandhurstweather.org.uk

High Low Average
Temperature 67.0°F19.4°C 47.3°F8.5°C 57.4°F14.1°C
Dew Point 53.9°F12.2°C 44.0°F6.7°C 47.1°F8.4°C
Winds 6.9 mph 11.1 kmh Calm Calm 3.0 mph SSW4.8 kmh SSW
Wind Gusts 16.1 mph25.9 kmh -- 6.0 mph9.7 kmh
Humidity 92% 47% 70%
Pressure 30.36 in1028.1 mb 30.21 in1023.0 mb -
Precipitation 0.00 in0.0 mm - -
Hour Temp Dew Point Humidity Winds Wind Gusts Pressure Precip Precip Rate Daily Precip Total
12:00 AM 57.7°F14.3°C 53.9°F12.2°C 87% 1.2 mph NW1.9 kmh NW 2.3 mph3.7 kmh 30.21 in1023.0 mb - 0.00 in0.0 mm 0.00 in0.0 mm
01:00 AM 57.6°F14.2°C 52.8°F11.6°C 84% 3.5 mph NW5.6 kmh NW 5.8 mph9.3 kmh 30.22 in1023.4 mb - 0.00 in0.0 mm 0.00 in0.0 mm
02:00 AM 56.0°F13.3°C 49.9°F9.9°C 80% 5.8 mph N9.3 kmh N 5.8 mph9.3 kmh 30.23 in1023.7 mb - 0.00 in0.0 mm 0.00 in0.0 mm
03:00 AM 53.0°F11.7°C 48.0°F8.9°C 83% 2.3 mph NW3.7 kmh NW 3.5 mph5.6 kmh 30.23 in1023.7 mb - 0.00 in0.0 mm 0.00 in0.0 mm
04:00 AM 50.4°F10.2°C 46.3°F7.9°C 86% 1.2 mph NW1.9 kmh NW 3.5 mph5.6 kmh 30.23 in1023.7 mb - 0.00 in0.0 mm 0.00 in0.0 mm
05:00 AM 48.6°F9.2°C 45.5°F7.5°C 89% Calm Calm -- 30.23 in1023.7 mb - 0.00 in0.0 mm 0.00 in0.0 mm
06:00 AM 47.3°F8.5°C 44.8°F7.1°C 91% Calm Calm -- 30.25 in1024.4 mb - 0.00 in0.0 mm 0.00 in0.0 mm
07:00 AM 48.0°F8.9°C 45.8°F7.7°C 92% 2.3 mph NW3.7 kmh NW 3.5 mph5.6 kmh 30.27 in1025.1 mb - 0.00 in0.0 mm 0.00 in0.0 mm
08:00 AM 51.1°F10.6°C 47.4°F8.6°C 87% 6.9 mph NW11.1 kmh NW 10.4 mph16.7 kmh 30.27 in1025.1 mb - 0.00 in0.0 mm 0.00 in0.0 mm
09:00 AM 57.5°F14.2°C 48.9°F9.4°C 73% 4.6 mph N7.4 kmh N 9.2 mph14.8 kmh 30.28 in1025.4 mb - 0.00 in0.0 mm 0.00 in0.0 mm
10:00 AM 59.7°F15.4°C 48.3°F9.1°C 66% 6.9 mph NE11.1 kmh NE 10.4 mph16.7 kmh 30.28 in1025.4 mb - 0.00 in0.0 mm 0.00 in0.0 mm
11:00 AM 62.0°F16.7°C 48.9°F9.4°C 62% 4.6 mph NW7.4 kmh NW 6.9 mph11.1 kmh 30.27 in1025.1 mb - 0.00 in0.0 mm 0.00 in0.0 mm
12:00 PM 65.2°F18.4°C 48.1°F8.9°C 54% 6.9 mph NW11.1 kmh NW 16.1 mph25.9 kmh 30.27 in1025.1 mb - 0.00 in0.0 mm 0.00 in0.0 mm
01:00 PM 66.1°F18.9°C 46.3°F7.9°C 49% 3.5 mph NNW5.6 kmh NNW 8.1 mph13.0 kmh 30.26 in1024.7 mb - 0.00 in0.0 mm 0.00 in0.0 mm
02:00 PM 67.0°F19.4°C 46.1°F7.8°C 47% 5.8 mph N9.3 kmh N 9.2 mph14.8 kmh 30.26 in1024.7 mb - 0.00 in0.0 mm 0.00 in0.0 mm
03:00 PM 67.0°F19.4°C 46.7°F8.2°C 48% 3.5 mph NNE5.6 kmh NNE 8.1 mph13.0 kmh 30.26 in1024.7 mb - 0.00 in0.0 mm 0.00 in0.0 mm
04:00 PM 66.9°F19.4°C 46.5°F8.1°C 48% 5.8 mph NNW9.3 kmh NNW 11.5 mph18.5 kmh 30.26 in1024.7 mb - 0.00 in0.0 mm 0.00 in0.0 mm
05:00 PM 64.1°F17.8°C 46.1°F7.8°C 52% 3.5 mph NE5.6 kmh NE 5.8 mph9.3 kmh 30.27 in1025.1 mb - 0.00 in0.0 mm 0.00 in0.0 mm
06:00 PM 61.4°F16.3°C 46.1°F7.8°C 57% 2.3 mph ENE3.7 kmh ENE 4.6 mph7.4 kmh 30.28 in1025.4 mb - 0.00 in0.0 mm 0.00 in0.0 mm
07:00 PM 57.7°F14.3°C 45.6°F7.6°C 64% 2.3 mph NE3.7 kmh NE 3.5 mph5.6 kmh 30.30 in1026.1 mb - 0.00 in0.0 mm 0.00 in0.0 mm
08:00 PM 55.4°F13.0°C 45.4°F7.4°C 69% 2.3 mph ENE3.7 kmh ENE 2.3 mph3.7 kmh 30.31 in1026.4 mb - 0.00 in0.0 mm 0.00 in0.0 mm
09:00 PM 54.0°F12.2°C 45.2°F7.3°C 72% 2.3 mph NE3.7 kmh NE 3.5 mph5.6 kmh 30.33 in1027.1 mb - 0.00 in0.0 mm 0.00 in0.0 mm
10:00 PM 52.8°F11.6°C 44.8°F7.1°C 74% 2.3 mph ENE3.7 kmh ENE 4.6 mph7.4 kmh 30.35 in1027.8 mb - 0.00 in0.0 mm 0.00 in0.0 mm
11:00 PM 51.7°F10.9°C 44.0°F6.7°C 75% 2.3 mph NE3.7 kmh NE 5.8 mph9.3 kmh 30.36 in1028.1 mb - 0.00 in0.0 mm 0.00 in0.0 mm